Monday, December 10, 2018, 10:17 PM EST
Back to Local

KOWD, Norwood Memorial Airport

Location: Norwood, MA, United States Lat: 42.183
Local Time: 10:17 PM EST ( 3:17 GMT) Lon: -71.167
Time Zone: US/Eastern Elev: 49 ft

Show me the last for .
Show Decoded

2018-12-10 21:53 METAR KOWD 110253Z AUTO 00000KT 10SM CLR M06/M09 A3018 RMK AO2 SLP219 T10561094
                 51010 =
2018-12-10 20:53 METAR KOWD 110153Z AUTO 34003KT 10SM CLR M03/M10 A3017 RMK AO2 SLP218 T10331100
                 =
2018-12-10 19:53 METAR KOWD 110053Z 35005KT 10SM CLR M02/M10 A3016 RMK AO2 SLP214 T10171100 =
2018-12-10 18:53 METAR KOWD 102353Z 32003KT 10SM CLR M03/M08 A3015 RMK AO2 SLP210 T10331078 10050
                 21033 53014 =
2018-12-10 17:53 METAR KOWD 102253Z 00000KT 10SM CLR M03/M08 A3013 RMK AO2 SLP203 T10281078 =
2018-12-10 16:53 METAR KOWD 102153Z 00000KT 10SM CLR M01/M07 A3012 RMK AO2 SLP199 T10111072 =
2018-12-10 15:53 METAR KOWD 102053Z 35004KT 10SM CLR 03/M09 A3011 RMK AO2 SLP196 T00331094 53009
                 =
2018-12-10 14:53 METAR KOWD 101953Z 33005KT 10SM CLR 04/M09 A3009 RMK AO2 SLP191 T00441089 =
2018-12-10 13:53 METAR KOWD 101853Z 34005KT 10SM CLR 04/M09 A3008 RMK AO2 SLP188 T00441089 =
2018-12-10 12:53 METAR KOWD 101753Z VRB04KT 10SM CLR 04/M09 A3008 RMK AO2 SLP187 T00441089 10044
                 21072 56012 =
2018-12-10 11:53 METAR KOWD 101653Z 36007KT 10SM CLR 04/M08 A3008 RMK AO2 SLP188 T00391083 =
2018-12-10 10:53 METAR KOWD 101553Z 36007KT 10SM CLR 03/M08 A3011 RMK AO2 SLP195 T00331078 =
2018-12-10 09:53 METAR KOWD 101453Z 35010KT 10SM CLR 02/M08 A3012 RMK AO2 SLP199 T00221078 53013
                 =
2018-12-10 08:53 METAR KOWD 101353Z 35005KT 10SM CLR 00/M05 A3010 RMK AO2 SLP193 T00001050 =
2018-12-10 07:53 METAR KOWD 101253Z 00000KT 10SM CLR M05/M07 A3008 RMK AO2 SLP187 T10501067 =
2018-12-10 06:53 METAR KOWD 101153Z 00000KT 10SM CLR M07/M09 A3008 RMK AO2 SLP186 I6001 T10721094
                 11056 21078 53002 =
2018-12-10 05:53 METAR KOWD 101053Z AUTO 00000KT 10SM CLR M08/M10 A3007 RMK AO2 SLP182 I1001
                 T10781100 =
2018-12-10 04:53 METAR KOWD 100953Z AUTO 00000KT 10SM CLR M07/M09 A3007 RMK AO2 SLP182 I1000
                 T10721094 =
2018-12-10 03:53 METAR KOWD 100853Z AUTO 00000KT 10SM CLR M06/M08 A3007 RMK AO2 SLP184 I1000
                 I3000 T10561078 58009 =
2018-12-10 02:53 METAR KOWD 100753Z AUTO 00000KT 10SM CLR M07/M09 A3008 RMK AO2 SLP188 T10671089
                 =
2018-12-10 01:53 METAR KOWD 100653Z AUTO 00000KT 10SM CLR M06/M08 A3010 RMK AO2 SLP192 T10611083
                 =
2018-12-10 00:53 METAR KOWD 100553Z AUTO 00000KT 10SM CLR M06/M09 A3010 RMK AO2 SLP193 T10561089
                 10000 21056 58013 =
2018-12-09 23:53 METAR KOWD 100453Z AUTO 00000KT 10SM CLR M03/M09 A3013 RMK AO2 SLP204 T10331089
                 400281089 =
2018-12-09 22:53 METAR KOWD 100353Z AUTO 23004KT 10SM CLR M01/M09 A3015 RMK AO2 SLP211 T10111089
                 =

Support USWX by starting your Amazon purchase here.